createdAt,value
2023-04-06T00:00:51.577Z,100.00
2023-04-06T00:03:19.794Z,100.00
2023-04-06T00:05:48.146Z,100.00
2023-04-06T00:08:14.860Z,100.00
2023-04-06T00:10:41.495Z,100.00
2023-04-06T00:13:09.129Z,100.00
2023-04-06T00:15:36.158Z,100.00
2023-04-06T00:18:03.462Z,100.00
2023-04-06T00:20:30.309Z,100.00
2023-04-06T00:22:56.955Z,100.00
2023-04-06T00:25:23.739Z,100.00
2023-04-06T00:27:50.402Z,100.00
2023-04-06T00:30:16.934Z,100.00
2023-04-06T00:32:43.613Z,100.00
2023-04-06T00:35:10.517Z,100.00
2023-04-06T00:37:37.231Z,100.00
2023-04-06T00:40:04.249Z,100.00
2023-04-06T00:42:31.312Z,100.00
2023-04-06T00:45:00.077Z,100.00
2023-04-06T00:47:27.556Z,100.00
2023-04-06T00:49:55.501Z,100.00
2023-04-06T00:52:22.432Z,100.00
2023-04-06T00:54:50.059Z,100.00
2023-04-06T00:57:16.796Z,100.00
2023-04-06T00:59:43.820Z,100.00
2023-04-06T01:02:10.625Z,100.00
2023-04-06T01:04:37.267Z,100.00
2023-04-06T01:07:03.959Z,100.00
2023-04-06T01:09:31.418Z,100.00
2023-04-06T01:11:59.110Z,100.00
2023-04-06T01:14:26.454Z,100.00
2023-04-06T01:16:53.407Z,100.00
2023-04-06T01:19:20.096Z,100.00
2023-04-06T01:21:46.706Z,100.00
2023-04-06T01:24:13.418Z,100.00
2023-04-06T01:26:41.632Z,100.00
2023-04-06T01:29:08.472Z,100.00
2023-04-06T01:31:35.732Z,100.00
2023-04-06T01:34:02.310Z,100.00
2023-04-06T01:36:28.936Z,100.00
2023-04-06T01:38:55.611Z,100.00
2023-04-06T01:41:22.271Z,100.00
2023-04-06T01:43:50.177Z,100.00
2023-04-06T01:46:17.370Z,100.00
2023-04-06T01:48:44.108Z,100.00
2023-04-06T01:51:10.801Z,100.00
2023-04-06T01:53:37.368Z,100.00
2023-04-06T01:56:04.232Z,100.00
2023-04-06T01:58:31.019Z,100.00
2023-04-06T02:00:57.668Z,100.00
2023-04-06T02:03:24.357Z,100.00
2023-04-06T02:05:51.087Z,100.00
2023-04-06T02:08:17.808Z,100.00
2023-04-06T02:10:44.419Z,100.00
2023-04-06T02:13:10.971Z,100.00
2023-04-06T02:15:37.609Z,100.00
2023-04-06T02:18:04.445Z,100.00
2023-04-06T02:20:31.200Z,100.00
2023-04-06T02:23:00.596Z,100.00
2023-04-06T02:25:27.656Z,100.00
2023-04-06T02:27:54.212Z,100.00
2023-04-06T02:30:21.269Z,100.00
2023-04-06T02:32:47.849Z,100.00
2023-04-06T02:35:14.552Z,100.00
2023-04-06T02:37:41.223Z,100.00
2023-04-06T02:40:08.473Z,100.00
2023-04-06T02:42:36.098Z,100.00
2023-04-06T02:45:02.860Z,100.00
2023-04-06T02:47:29.527Z,99.64
2023-04-06T02:49:56.154Z,100.00
2023-04-06T02:52:22.859Z,100.00
2023-04-06T02:54:49.427Z,99.98
2023-04-06T02:57:16.269Z,100.00
2023-04-06T02:59:42.937Z,100.00
2023-04-06T03:02:09.643Z,100.00
2023-04-06T03:04:36.369Z,99.96
2023-04-06T03:07:03.130Z,99.48
2023-04-06T03:09:29.861Z,99.85
2023-04-06T03:11:56.885Z,100.00
2023-04-06T03:14:23.637Z,100.00
2023-04-06T03:16:50.317Z,100.00
2023-04-06T03:19:16.889Z,100.00
2023-04-06T03:21:43.447Z,100.00
2023-04-06T03:24:10.045Z,99.60
2023-04-06T03:26:36.641Z,99.33
2023-04-06T03:29:03.290Z,98.91
2023-04-06T03:31:30.051Z,98.88
2023-04-06T03:33:57.004Z,99.29
2023-04-06T03:36:23.590Z,99.21
2023-04-06T03:38:50.944Z,99.46
2023-04-06T03:41:17.493Z,99.31
2023-04-06T03:43:44.087Z,99.05
2023-04-06T03:46:10.966Z,99.04
2023-04-06T03:48:37.711Z,98.97
2023-04-06T03:51:04.396Z,98.21
2023-04-06T03:53:31.160Z,98.17
2023-04-06T03:55:57.779Z,98.88
2023-04-06T03:58:24.431Z,98.49
2023-04-06T04:00:51.015Z,98.35
2023-04-06T04:03:17.732Z,98.08
2023-04-06T04:05:44.553Z,97.87
2023-04-06T04:08:11.522Z,96.98
2023-04-06T04:10:38.132Z,96.97
2023-04-06T04:13:04.696Z,98.17
2023-04-06T04:15:31.229Z,98.37
2023-04-06T04:17:57.896Z,99.66
2023-04-06T04:20:24.505Z,100.00
2023-04-06T04:22:51.178Z,100.00
2023-04-06T04:25:17.770Z,100.00
2023-04-06T04:27:44.350Z,100.00
2023-04-06T04:30:11.613Z,100.00
2023-04-06T04:32:38.437Z,99.22
2023-04-06T04:35:05.462Z,98.57
2023-04-06T04:37:32.110Z,97.74
2023-04-06T04:39:58.766Z,98.24
2023-04-06T04:42:25.323Z,98.00
2023-04-06T04:44:51.908Z,98.21
2023-04-06T04:47:18.528Z,97.69
2023-04-06T04:49:45.121Z,97.14
2023-04-06T04:52:11.937Z,97.31
2023-04-06T04:54:38.830Z,97.21
2023-04-06T04:57:05.401Z,97.17
2023-04-06T04:59:32.221Z,95.88
2023-04-06T05:01:59.079Z,96.35
2023-04-06T05:04:26.063Z,96.84
2023-04-06T05:07:04.504Z,97.07
2023-04-06T05:09:32.400Z,96.54
2023-04-06T05:12:02.599Z,96.30
2023-04-06T05:14:30.124Z,95.95
2023-04-06T05:16:56.842Z,96.74
2023-04-06T05:19:23.606Z,96.38
2023-04-06T05:21:50.420Z,96.15
2023-04-06T05:24:16.998Z,95.60
2023-04-06T05:26:43.737Z,94.99
2023-04-06T05:29:11.628Z,96.81
2023-04-06T05:31:38.341Z,97.45
2023-04-06T05:34:04.988Z,97.18
2023-04-06T05:36:33.277Z,97.77
2023-04-06T05:39:00.180Z,97.02
2023-04-06T05:41:27.303Z,97.66
2023-04-06T05:43:53.975Z,97.04
2023-04-06T05:46:21.036Z,97.74
2023-04-06T05:48:47.794Z,98.63
2023-04-06T05:51:14.409Z,97.42
2023-04-06T05:53:41.525Z,98.02
2023-04-06T05:56:08.228Z,98.62
2023-04-06T05:58:35.107Z,96.73
2023-04-06T06:01:02.394Z,95.00
2023-04-06T06:03:29.770Z,94.60
2023-04-06T06:06:05.455Z,94.80
2023-04-06T06:08:32.742Z,95.56
2023-04-06T06:10:59.619Z,94.16
2023-04-06T06:13:26.192Z,95.19
2023-04-06T06:15:52.980Z,96.47
2023-04-06T06:18:19.852Z,95.09
2023-04-06T06:20:46.774Z,94.85
2023-04-06T06:23:13.331Z,93.58
2023-04-06T06:25:40.378Z,91.54
2023-04-06T06:28:07.050Z,88.33
2023-04-06T06:30:33.836Z,86.36
2023-04-06T06:33:00.618Z,83.94
2023-04-06T06:35:27.448Z,81.34
2023-04-06T06:37:54.160Z,82.11
2023-04-06T06:40:23.108Z,82.85
2023-04-06T06:42:49.670Z,86.23
2023-04-06T06:45:16.681Z,84.76
2023-04-06T06:47:43.349Z,85.31
2023-04-06T06:50:10.245Z,84.73
2023-04-06T06:52:37.041Z,84.88
2023-04-06T06:55:04.017Z,81.22
2023-04-06T06:57:30.776Z,81.88
2023-04-06T06:59:57.389Z,81.48
2023-04-06T07:02:24.084Z,83.19
2023-04-06T07:04:51.063Z,79.93
2023-04-06T07:07:18.040Z,81.14
2023-04-06T07:09:44.711Z,81.39
2023-04-06T07:12:11.385Z,78.29
2023-04-06T07:14:38.255Z,81.06
2023-04-06T07:17:05.083Z,79.26
2023-04-06T07:19:32.034Z,79.68
2023-04-06T07:21:58.754Z,82.35
2023-04-06T07:24:25.302Z,81.31
2023-04-06T07:26:52.012Z,81.60
2023-04-06T07:29:19.198Z,79.12
2023-04-06T07:31:46.138Z,74.90
2023-04-06T07:34:12.893Z,74.18
2023-04-06T07:36:39.464Z,75.76
2023-04-06T07:39:06.171Z,76.67
2023-04-06T07:41:32.904Z,75.72
2023-04-06T07:43:59.530Z,74.06
2023-04-06T07:46:26.340Z,69.51
2023-04-06T07:48:53.310Z,64.88
2023-04-06T07:51:19.934Z,62.90
2023-04-06T07:53:46.600Z,59.20
2023-04-06T07:56:13.522Z,58.77
2023-04-06T07:58:40.168Z,57.26
2023-04-06T08:01:06.833Z,58.22
2023-04-06T08:03:35.831Z,58.88
2023-04-06T08:06:03.591Z,59.04
2023-04-06T08:08:30.464Z,59.23
2023-04-06T08:10:58.236Z,59.56
2023-04-06T08:13:26.158Z,59.51
2023-04-06T08:15:52.816Z,59.67
2023-04-06T08:18:19.457Z,62.15
2023-04-06T08:20:46.070Z,64.88
2023-04-06T08:23:12.936Z,64.63
2023-04-06T08:25:39.478Z,64.45
2023-04-06T08:28:06.479Z,63.08
2023-04-06T08:30:33.351Z,61.68
2023-04-06T08:33:00.009Z,63.21
2023-04-06T08:35:28.114Z,63.33
2023-04-06T08:37:54.833Z,62.23
2023-04-06T08:40:21.674Z,64.45
2023-04-06T08:42:53.602Z,64.54
2023-04-06T08:45:22.355Z,64.13
2023-04-06T08:47:53.737Z,63.04
2023-04-06T08:50:20.707Z,62.79
2023-04-06T08:52:49.493Z,63.91
2023-04-06T08:55:17.262Z,62.56
2023-04-06T08:57:44.549Z,63.35
2023-04-06T09:00:12.812Z,63.15
2023-04-06T09:02:42.162Z,63.04
2023-04-06T09:05:10.855Z,64.65
2023-04-06T09:07:38.007Z,63.97
2023-04-06T09:10:06.475Z,63.48
2023-04-06T09:12:33.869Z,64.05
2023-04-06T09:15:01.371Z,64.43
2023-04-06T09:17:34.382Z,63.92
2023-04-06T09:20:03.432Z,63.59
2023-04-06T09:22:45.506Z,64.71
2023-04-06T09:25:20.781Z,64.96
2023-04-06T09:27:47.817Z,65.42
2023-04-06T09:30:16.919Z,65.55
2023-04-06T09:32:53.576Z,65.81
2023-04-06T09:35:21.266Z,63.54
2023-04-06T09:37:52.822Z,65.69
2023-04-06T09:40:20.778Z,65.39
2023-04-06T09:42:49.249Z,65.08
2023-04-06T09:45:16.422Z,64.03
2023-04-06T09:47:47.665Z,63.58
2023-04-06T09:50:16.051Z,62.41
2023-04-06T09:52:51.856Z,62.90
2023-04-06T09:55:32.138Z,62.69
2023-04-06T09:58:03.882Z,62.68
2023-04-06T10:00:33.972Z,63.94
2023-04-06T10:03:08.740Z,62.21
2023-04-06T10:06:02.261Z,63.51
2023-04-06T10:08:32.990Z,62.01
2023-04-06T10:11:01.820Z,61.75
2023-04-06T10:13:28.575Z,62.46
2023-04-06T10:15:56.089Z,63.31
2023-04-06T10:18:23.137Z,62.39
2023-04-06T10:20:54.593Z,62.69
2023-04-06T10:23:30.700Z,61.68
2023-04-06T10:25:59.470Z,61.76
2023-04-06T10:28:26.630Z,63.18
2023-04-06T10:31:02.554Z,63.76
2023-04-06T10:33:29.444Z,63.58
2023-04-06T10:35:56.916Z,63.55
2023-04-06T10:38:41.958Z,63.41
2023-04-06T10:41:13.483Z,62.95
2023-04-06T10:43:42.456Z,63.32
2023-04-06T10:46:10.797Z,63.86
2023-04-06T10:48:46.623Z,62.75
2023-04-06T10:51:15.499Z,63.61
2023-04-06T10:53:44.285Z,64.61
2023-04-06T10:56:13.034Z,64.01
2023-04-06T10:58:46.443Z,64.53
2023-04-06T11:01:13.633Z,66.16
2023-04-06T11:03:47.466Z,66.66
2023-04-06T11:06:28.864Z,65.53
2023-04-06T11:08:56.499Z,64.64
2023-04-06T11:11:26.556Z,64.24
2023-04-06T11:13:55.295Z,64.64
2023-04-06T11:16:23.624Z,64.85
2023-04-06T11:18:58.752Z,64.32
2023-04-06T11:21:40.512Z,63.84
2023-04-06T11:24:13.163Z,62.34
2023-04-06T11:26:49.454Z,63.31
2023-04-06T11:29:18.451Z,63.28
2023-04-06T11:32:21.589Z,62.64
2023-04-06T11:34:49.406Z,64.60
2023-04-06T11:37:16.090Z,64.99
2023-04-06T11:39:51.816Z,64.04
2023-04-06T11:42:30.362Z,63.75
2023-04-06T11:45:00.620Z,63.68
2023-04-06T11:47:34.636Z,63.46
2023-04-06T11:50:15.725Z,62.27
2023-04-06T11:52:43.595Z,63.08
2023-04-06T11:55:18.603Z,62.66
2023-04-06T11:57:46.272Z,62.72
2023-04-06T12:00:13.888Z,62.90
2023-04-06T12:02:41.297Z,63.63
2023-04-06T12:05:09.459Z,64.65
2023-04-06T12:07:36.285Z,65.62
2023-04-06T12:10:03.954Z,65.03
2023-04-06T12:12:30.710Z,66.11
2023-04-06T12:14:58.063Z,65.61
2023-04-06T12:17:24.966Z,65.08
2023-04-06T12:19:51.882Z,64.03
2023-04-06T12:22:19.350Z,63.18
2023-04-06T12:24:46.036Z,63.71
2023-04-06T12:27:12.686Z,62.74
2023-04-06T12:29:40.264Z,62.38
2023-04-06T12:32:07.238Z,61.73
2023-04-06T12:34:33.826Z,63.15
2023-04-06T12:37:00.703Z,63.79
2023-04-06T12:39:29.221Z,63.78
2023-04-06T12:41:57.319Z,64.66
2023-04-06T12:44:25.530Z,65.40
2023-04-06T12:46:53.540Z,65.03
2023-04-06T12:49:20.688Z,64.07
2023-04-06T12:51:47.376Z,64.14
2023-04-06T12:56:58.721Z,64.89
2023-04-06T12:59:26.405Z,65.42
2023-04-06T13:01:53.874Z,64.94
2023-04-06T13:04:20.752Z,64.71
2023-04-06T13:06:47.329Z,65.09
2023-04-06T13:09:13.936Z,65.37
2023-04-06T13:11:40.605Z,65.07
2023-04-06T13:14:07.212Z,64.42
2023-04-06T13:16:33.968Z,64.97
2023-04-06T13:19:00.690Z,65.23
2023-04-06T13:21:27.396Z,66.37
2023-04-06T13:23:53.963Z,66.85
2023-04-06T13:26:21.006Z,67.12
2023-04-06T13:28:47.677Z,65.25
2023-04-06T13:31:14.511Z,66.13
2023-04-06T13:33:41.976Z,64.79
2023-04-06T13:36:09.144Z,63.46
2023-04-06T13:38:36.017Z,64.46
2023-04-06T13:41:02.637Z,63.41
2023-04-06T13:43:29.229Z,63.18
2023-04-06T13:45:56.783Z,61.84
2023-04-06T13:48:23.700Z,62.24
2023-04-06T13:50:50.744Z,62.42
2023-04-06T13:53:17.489Z,62.87
2023-04-06T13:55:44.157Z,63.35
2023-04-06T13:58:10.921Z,63.77
2023-04-06T14:00:38.076Z,63.89
2023-04-06T14:03:05.212Z,63.36
2023-04-06T14:05:33.665Z,63.22
2023-04-06T14:08:00.476Z,63.87
2023-04-06T14:10:28.704Z,64.46
2023-04-06T14:12:56.988Z,63.68
2023-04-06T14:15:24.933Z,64.34
2023-04-06T14:17:52.735Z,63.89
2023-04-06T14:20:19.875Z,63.57
2023-04-06T14:22:47.655Z,63.45
2023-04-06T14:25:14.652Z,62.94
2023-04-06T14:27:41.373Z,63.36
2023-04-06T14:30:09.259Z,64.63
2023-04-06T14:32:37.514Z,63.93
2023-04-06T14:35:07.796Z,63.98
2023-04-06T14:37:34.907Z,64.04
2023-04-06T14:40:01.651Z,64.77
2023-04-06T14:42:28.208Z,64.83
2023-04-06T14:44:54.921Z,64.22
2023-04-06T14:47:22.754Z,65.01
2023-04-06T14:49:52.298Z,64.14
2023-04-06T14:52:18.894Z,65.04
2023-04-06T14:54:45.579Z,65.73
2023-04-06T14:57:12.253Z,66.63
2023-04-06T14:59:40.071Z,66.88
2023-04-06T15:02:07.801Z,65.91
2023-04-06T15:04:38.143Z,65.95
2023-04-06T15:07:05.172Z,65.85
2023-04-06T15:09:31.887Z,66.11
2023-04-06T15:11:58.724Z,66.45
2023-04-06T15:14:25.814Z,67.34
2023-04-06T15:16:52.720Z,68.00
2023-04-06T15:19:19.603Z,68.13
2023-04-06T15:21:48.880Z,68.03
2023-04-06T15:24:15.764Z,69.87
2023-04-06T15:26:42.342Z,70.08
2023-04-06T15:29:09.170Z,71.67
2023-04-06T15:31:38.505Z,70.88
2023-04-06T15:34:09.313Z,71.08
2023-04-06T15:36:36.783Z,72.78
2023-04-06T15:39:04.683Z,73.08
2023-04-06T15:41:31.976Z,74.49
2023-04-06T15:43:58.815Z,73.14
2023-04-06T15:46:28.228Z,73.24
2023-04-06T15:48:55.732Z,74.28
2023-04-06T15:51:22.512Z,74.60
2023-04-06T15:53:49.052Z,75.36
2023-04-06T15:56:16.450Z,75.39
2023-04-06T15:58:43.180Z,75.95
2023-04-06T16:01:19.544Z,75.48
2023-04-06T16:03:46.695Z,75.11
2023-04-06T16:06:13.536Z,76.27
2023-04-06T16:08:41.132Z,76.64
2023-04-06T16:11:08.032Z,76.70
2023-04-06T16:13:35.009Z,77.07
2023-04-06T16:16:01.755Z,78.72
2023-04-06T16:18:28.457Z,79.67
2023-04-06T16:20:55.604Z,79.81
2023-04-06T16:23:22.473Z,78.26
2023-04-06T16:25:50.626Z,79.43
2023-04-06T16:28:17.758Z,77.22
2023-04-06T16:30:46.677Z,76.63
2023-04-06T16:33:14.121Z,76.97
2023-04-06T16:35:47.497Z,77.77
2023-04-06T16:38:15.212Z,76.52
2023-04-06T16:40:42.039Z,75.57
2023-04-06T16:43:09.970Z,75.99
2023-04-06T16:45:37.069Z,75.98
2023-04-06T16:48:04.158Z,75.79
2023-04-06T16:50:31.041Z,76.66
2023-04-06T16:52:57.774Z,77.17
2023-04-06T16:55:24.446Z,77.11
2023-04-06T16:57:55.224Z,76.75
2023-04-06T17:00:22.236Z,75.31
2023-04-06T17:02:49.011Z,74.47
2023-04-06T17:05:18.168Z,74.63
2023-04-06T17:07:44.726Z,74.68
2023-04-06T17:10:11.438Z,75.03
2023-04-06T17:12:38.079Z,75.08
2023-04-06T17:15:05.054Z,75.10
2023-04-06T17:17:31.740Z,75.23
2023-04-06T17:19:58.405Z,75.34
2023-04-06T17:22:25.023Z,75.41
2023-04-06T17:24:51.599Z,74.96
2023-04-06T17:27:18.847Z,75.12
2023-04-06T17:29:45.522Z,75.98
2023-04-06T17:32:12.234Z,75.27
2023-04-06T17:34:39.181Z,75.66
2023-04-06T17:37:05.979Z,75.15
2023-04-06T17:39:32.802Z,75.29
2023-04-06T17:42:00.083Z,75.23
2023-04-06T17:44:26.938Z,75.63
2023-04-06T17:46:53.614Z,74.86
2023-04-06T17:49:20.414Z,74.52
2023-04-06T17:51:47.132Z,74.39
2023-04-06T17:54:14.147Z,74.44
2023-04-06T17:56:40.901Z,74.75
2023-04-06T17:59:10.650Z,74.44
2023-04-06T18:01:39.417Z,74.91
2023-04-06T18:04:06.108Z,74.42
2023-04-06T18:06:32.886Z,74.47
2023-04-06T18:09:00.044Z,74.86
2023-04-06T18:11:29.377Z,73.95
2023-04-06T18:13:56.253Z,73.75
2023-04-06T18:16:23.227Z,73.87
2023-04-06T18:18:50.045Z,73.69
2023-04-06T18:21:16.677Z,74.21
2023-04-06T18:23:43.250Z,74.04
2023-04-06T18:26:17.778Z,73.55
2023-04-06T18:28:44.685Z,73.52
2023-04-06T18:31:11.771Z,73.53
2023-04-06T18:33:38.426Z,74.39
2023-04-06T18:36:05.557Z,74.56
2023-04-06T18:38:32.166Z,74.39
2023-04-06T18:40:59.444Z,74.21
2023-04-06T18:43:26.358Z,73.73
2023-04-06T18:45:53.013Z,74.30
2023-04-06T18:48:19.748Z,74.12
2023-04-06T18:50:54.096Z,73.77
2023-04-06T18:53:21.277Z,73.08
2023-04-06T18:55:48.011Z,72.33
2023-04-06T18:58:14.664Z,72.40
2023-04-06T19:00:41.981Z,72.09
2023-04-06T19:03:08.850Z,71.42
2023-04-06T19:05:36.195Z,71.03
2023-04-06T19:08:03.020Z,72.00
2023-04-06T19:10:29.678Z,71.24
2023-04-06T19:12:57.823Z,72.02
2023-04-06T19:15:24.503Z,71.40
2023-04-06T19:17:51.234Z,71.60
2023-04-06T19:20:18.241Z,71.30
2023-04-06T19:22:45.100Z,71.32
2023-04-06T19:25:12.658Z,71.17
2023-04-06T19:27:39.466Z,71.36
2023-04-06T19:30:06.967Z,71.67
2023-04-06T19:32:33.686Z,71.91
2023-04-06T19:35:01.579Z,70.91
2023-04-06T19:37:28.289Z,71.40
2023-04-06T19:39:54.799Z,72.11
2023-04-06T19:42:21.898Z,71.24
2023-04-06T19:44:49.067Z,70.75
2023-04-06T19:47:16.121Z,71.22
2023-04-06T19:49:43.169Z,70.57
2023-04-06T19:52:10.179Z,71.75
2023-04-06T19:54:38.169Z,71.33
2023-04-06T19:57:05.497Z,71.63
2023-04-06T19:59:34.309Z,71.81
2023-04-06T20:02:01.252Z,71.83
2023-04-06T20:04:28.231Z,71.94
2023-04-06T20:06:54.889Z,71.94
2023-04-06T20:09:22.327Z,72.20
2023-04-06T20:11:48.989Z,72.24
2023-04-06T20:14:16.011Z,71.50
2023-04-06T20:16:42.824Z,71.11
2023-04-06T20:19:09.566Z,70.41
2023-04-06T20:21:37.394Z,69.55
2023-04-06T20:24:06.080Z,69.09
2023-04-06T20:26:32.771Z,68.44
2023-04-06T20:28:59.356Z,68.26
2023-04-06T20:31:27.435Z,68.59
2023-04-06T20:33:54.347Z,69.05
2023-04-06T20:36:22.290Z,68.79
2023-04-06T20:38:49.249Z,68.75
2023-04-06T20:41:16.377Z,68.84
2023-04-06T20:43:43.173Z,68.82
2023-04-06T20:46:15.933Z,69.29
2023-04-06T20:48:42.716Z,69.55
2023-04-06T20:51:17.536Z,69.34
2023-04-06T20:53:44.079Z,69.67
2023-04-06T20:56:10.688Z,69.70
2023-04-06T20:58:37.266Z,69.91
2023-04-06T21:01:04.071Z,70.83
2023-04-06T21:03:30.963Z,70.44
2023-04-06T21:05:59.058Z,70.53
2023-04-06T21:08:25.940Z,70.36
2023-04-06T21:10:52.598Z,70.06
2023-04-06T21:13:19.273Z,70.57
2023-04-06T21:15:45.976Z,70.20
2023-04-06T21:18:12.738Z,70.49
2023-04-06T21:20:40.013Z,70.31
2023-04-06T21:23:06.641Z,69.36
2023-04-06T21:25:33.298Z,69.78
2023-04-06T21:27:59.859Z,70.05
2023-04-06T21:30:26.431Z,71.00
2023-04-06T21:32:53.125Z,70.81
2023-04-06T21:35:20.292Z,70.91
2023-04-06T21:37:46.942Z,70.51
2023-04-06T21:40:13.687Z,70.51
2023-04-06T21:42:40.586Z,70.33
2023-04-06T21:45:07.616Z,70.73
2023-04-06T21:47:35.101Z,70.37
2023-04-06T21:50:01.782Z,70.28
2023-04-06T21:52:28.418Z,71.27
2023-04-06T21:54:55.144Z,71.37
2023-04-06T21:57:21.729Z,71.83
2023-04-06T21:59:48.307Z,71.73
2023-04-06T22:02:14.948Z,72.13
2023-04-06T22:04:41.768Z,72.63
2023-04-06T22:07:08.606Z,72.65
2023-04-06T22:09:35.539Z,72.34
2023-04-06T22:12:02.083Z,72.42
2023-04-06T22:14:28.939Z,73.22
2023-04-06T22:16:55.522Z,72.85
2023-04-06T22:19:22.261Z,73.14
2023-04-06T22:21:49.150Z,73.25
2023-04-06T22:24:16.441Z,73.68
2023-04-06T22:26:43.221Z,73.66
2023-04-06T22:29:09.825Z,73.86
2023-04-06T22:31:36.450Z,74.34
2023-04-06T22:34:03.018Z,74.51
2023-04-06T22:36:29.701Z,74.74
2023-04-06T22:38:56.615Z,74.83
2023-04-06T22:41:23.198Z,74.85
2023-04-06T22:43:49.787Z,75.67
2023-04-06T22:46:16.365Z,76.37
2023-04-06T22:48:43.334Z,75.57
2023-04-06T22:51:09.912Z,75.88
2023-04-06T22:53:36.575Z,76.21
2023-04-06T22:56:03.244Z,75.73
2023-04-06T22:58:29.971Z,75.48
2023-04-06T23:00:56.568Z,75.67
2023-04-06T23:03:23.338Z,75.55
2023-04-06T23:05:50.173Z,75.70
2023-04-06T23:08:16.757Z,75.69
2023-04-06T23:10:43.413Z,76.02
2023-04-06T23:13:10.565Z,76.47
2023-04-06T23:15:37.149Z,76.33
2023-04-06T23:18:03.974Z,74.95
2023-04-06T23:20:30.857Z,74.39
2023-04-06T23:22:57.484Z,74.70
2023-04-06T23:25:24.120Z,74.98
2023-04-06T23:27:52.410Z,74.47
2023-04-06T23:30:18.941Z,74.12
2023-04-06T23:32:45.856Z,74.22
2023-04-06T23:35:12.617Z,73.91
2023-04-06T23:37:39.241Z,73.43
2023-04-06T23:40:06.423Z,73.83
2023-04-06T23:42:33.182Z,73.23
2023-04-06T23:44:59.819Z,74.33
2023-04-06T23:47:26.535Z,74.33
2023-04-06T23:49:53.205Z,74.49
2023-04-06T23:52:20.112Z,73.84
2023-04-06T23:54:46.645Z,73.54
2023-04-06T23:57:13.207Z,73.44
2023-04-06T23:59:39.877Z,73.99
